Idleyld Park, Oregon
Current Conditions -  °F | °C
As of 10:53 AM on Saturday 25 Oct 2014 (Local Time) from KRBG Reporting Station
Light Rain Light Rain  
Wind Chill: 61°   Ceiling: 8000
Heat Index: 61°   Visibility: 9mi
Dew Point: 50°   Wind: 16mph
Humidity: 67%   Direction: 170°S
Pressure: 29.5"   Gusts: 29mph
Location:  43.32°N, 123.03°W
Report Text: KRBG 251753Z AUTO 17014G25KT 9SM -RA FEW060 OVC080 16/10 A2950 RMK AO2 RAE07B40 SLP989 P0001 60005 T01610100 10178 20122 53022 $
Loading
Personal Weather Stations






























Interactive Weather Map
Tropical Storm Tracking
New forecast layout! Learn more

10-Day Weather Forecast

Advertisements
Track Severe Weather on mobile